Forrest, Illinois
Current Conditions -  °F | °C
As of 5:15 PM on Tuesday 25 Nov 2014 (Local Time) from KPNT Reporting Station
Overcast Overcast  
Wind Chill: 17°   Ceiling: 1400
Heat Index: 25°   Visibility: 10mi
Dew Point: 21°   Wind: 7mph
Humidity: 85%   Direction: 300°WNW
Pressure: 30.18"   Gusts: NA
Location:  40.75°N, 88.41°W
Report Text: KPNT 252315Z AUTO 30006KT 10SM OVC014 M04/M06 A3018 RMK AO2 T10381060
Loading
Personal Weather Stations






























Interactive Weather Map New forecast layout! Learn more

10-Day Weather Forecast

Advertisements
Track Severe Weather on mobile